createdAt,value
2023-05-13T00:03:34.644Z,101042.67
2023-05-13T00:06:03.863Z,101063.13
2023-05-13T00:08:31.940Z,101085.20
2023-05-13T00:11:00.722Z,101091.67
2023-05-13T00:13:29.008Z,101103.71
2023-05-13T00:15:57.076Z,101110.25
2023-05-13T00:18:25.972Z,101115.16
2023-05-13T00:20:54.246Z,101116.07
2023-05-13T00:23:23.458Z,101119.94
2023-05-13T00:25:51.883Z,101113.87
2023-05-13T00:28:20.343Z,101110.44
2023-05-13T00:30:48.614Z,101107.38
2023-05-13T00:33:17.373Z,101113.77
2023-05-13T00:35:45.551Z,101113.94
2023-05-13T00:38:14.679Z,101108.88
2023-05-13T00:40:43.328Z,101108.25
2023-05-13T00:43:11.528Z,101109.02
2023-05-13T00:45:39.804Z,101112.35
2023-05-13T00:48:09.360Z,101113.71
2023-05-13T00:50:37.613Z,101105.30
2023-05-13T00:53:05.640Z,101099.09
2023-05-13T00:55:33.806Z,101081.77
2023-05-13T00:58:03.707Z,101072.02
2023-05-13T01:00:36.709Z,101064.91
2023-05-13T01:03:20.228Z,101045.44
2023-05-13T01:06:08.624Z,101033.77
2023-05-13T01:08:39.617Z,101033.66
2023-05-13T01:11:19.734Z,101038.30
2023-05-13T01:13:52.528Z,101043.43
2023-05-13T01:16:40.117Z,101039.98
2023-05-13T01:20:06.584Z,101050.14
2023-05-13T01:22:34.788Z,101051.20
2023-05-13T01:25:02.984Z,101043.38
2023-05-13T01:27:31.245Z,101033.41
2023-05-13T01:30:00.628Z,101025.09
2023-05-13T01:32:28.949Z,101020.89
2023-05-13T01:34:58.667Z,101020.42
2023-05-13T01:37:29.448Z,101017.09
2023-05-13T01:39:57.886Z,101025.14
2023-05-13T01:42:29.492Z,101031.06
2023-05-13T01:44:58.106Z,101034.84
2023-05-13T01:47:27.134Z,101035.61
2023-05-13T01:49:55.665Z,101037.58
2023-05-13T01:52:23.766Z,101046.85
2023-05-13T01:54:51.803Z,101051.99
2023-05-13T01:57:19.898Z,101055.55
2023-05-13T01:59:47.948Z,101057.13
2023-05-13T02:02:16.231Z,101059.08
2023-05-13T02:04:44.556Z,101064.92
2023-05-13T02:07:12.607Z,101067.77
2023-05-13T02:09:40.732Z,101070.06
2023-05-13T02:12:08.779Z,101065.43
2023-05-13T02:14:36.842Z,101052.60
2023-05-13T02:17:05.260Z,101044.02
2023-05-13T02:19:33.924Z,101052.55
2023-05-13T02:22:01.889Z,101053.39
2023-05-13T02:24:31.188Z,101055.36
2023-05-13T02:26:59.888Z,101049.48
2023-05-13T02:29:28.279Z,101047.67
2023-05-13T02:31:57.059Z,101046.94
2023-05-13T02:34:25.637Z,101051.90
2023-05-13T02:36:54.470Z,101057.40
2023-05-13T02:39:23.077Z,101060.95
2023-05-13T02:41:51.717Z,101064.86
2023-05-13T02:44:20.414Z,101073.22
2023-05-13T02:46:49.578Z,101078.20
2023-05-13T02:49:17.696Z,101084.24
2023-05-13T02:51:46.048Z,101082.45
2023-05-13T02:54:14.039Z,101077.10
2023-05-13T02:56:42.255Z,101074.56
2023-05-13T02:59:10.253Z,101074.55
2023-05-13T03:01:38.900Z,101065.33
2023-05-13T03:04:07.697Z,101061.27
2023-05-13T03:06:36.370Z,101060.93
2023-05-13T03:09:04.715Z,101068.55
2023-05-13T03:11:32.985Z,101063.21
2023-05-13T03:14:01.293Z,101056.94
2023-05-13T03:16:29.390Z,101045.56
2023-05-13T03:18:57.924Z,101038.63
2023-05-13T03:21:27.942Z,101034.41
2023-05-13T03:23:56.204Z,101032.07
2023-05-13T03:26:24.872Z,101022.25
2023-05-13T03:28:53.400Z,101021.72
2023-05-13T03:31:22.158Z,101024.55
2023-05-13T03:33:50.352Z,101021.70
2023-05-13T03:36:18.805Z,101023.27
2023-05-13T03:38:47.359Z,101030.91
2023-05-13T03:41:15.934Z,101039.42
2023-05-13T03:43:44.288Z,101038.16
2023-05-13T03:46:12.434Z,101041.89
2023-05-13T03:48:40.946Z,101041.52
2023-05-13T03:51:09.918Z,101041.15
2023-05-13T03:53:38.082Z,101036.66
2023-05-13T03:56:06.501Z,101029.88
2023-05-13T03:58:34.619Z,101025.96
2023-05-13T04:01:02.860Z,101023.81
2023-05-13T04:03:31.524Z,101021.84
2023-05-13T04:06:01.049Z,101026.08
2023-05-13T04:08:29.572Z,101025.34
2023-05-13T04:10:58.727Z,101024.77
2023-05-13T04:13:27.282Z,101024.70
2023-05-13T04:15:56.450Z,101023.80
2023-05-13T04:18:25.803Z,101021.48
2023-05-13T04:20:53.925Z,101027.50
2023-05-13T04:23:22.905Z,101026.04
2023-05-13T04:25:52.068Z,101025.27
2023-05-13T04:28:20.824Z,101038.17
2023-05-13T04:30:49.061Z,101037.25
2023-05-13T04:33:17.469Z,101039.35
2023-05-13T04:35:46.163Z,101040.59
2023-05-13T04:38:14.359Z,101044.31
2023-05-13T04:40:44.512Z,101042.31
2023-05-13T04:43:12.649Z,101041.92
2023-05-13T04:45:41.177Z,101043.35
2023-05-13T04:48:09.306Z,101041.02
2023-05-13T04:50:37.403Z,101041.16
2023-05-13T04:53:06.456Z,101041.13
2023-05-13T04:55:35.646Z,101039.48
2023-05-13T04:58:03.613Z,101039.52
2023-05-13T05:00:31.769Z,101038.63
2023-05-13T05:03:00.729Z,101043.24
2023-05-13T05:05:28.827Z,101048.35
2023-05-13T05:07:57.265Z,101043.71
2023-05-13T05:10:25.321Z,101047.63
2023-05-13T05:12:53.296Z,101051.36
2023-05-13T05:15:22.717Z,101050.80
2023-05-13T05:17:51.186Z,101055.02
2023-05-13T05:20:20.882Z,101062.81
2023-05-13T05:22:49.281Z,101066.70
2023-05-13T05:25:17.434Z,101074.35
2023-05-13T05:27:46.030Z,101073.27
2023-05-13T05:30:14.821Z,101075.19
2023-05-13T05:32:43.196Z,101083.35
2023-05-13T05:35:11.576Z,101088.88
2023-05-13T05:37:39.762Z,101095.83
2023-05-13T05:40:08.744Z,101099.92
2023-05-13T05:42:37.365Z,101100.45
2023-05-13T05:45:05.765Z,101106.16
2023-05-13T05:47:34.441Z,101107.77
2023-05-13T05:50:02.436Z,101111.52
2023-05-13T05:52:30.520Z,101115.75
2023-05-13T05:54:58.718Z,101121.41
2023-05-13T05:57:27.881Z,101125.31
2023-05-13T05:59:55.864Z,101124.61
2023-05-13T06:02:24.398Z,101125.02
2023-05-13T06:04:52.668Z,101132.33
2023-05-13T06:07:20.770Z,101130.93
2023-05-13T06:09:49.344Z,101134.02
2023-05-13T06:12:17.719Z,101132.96
2023-05-13T06:14:45.816Z,101137.64
2023-05-13T06:17:14.495Z,101143.72
2023-05-13T06:19:42.659Z,101146.59
2023-05-13T06:22:11.643Z,101150.02
2023-05-13T06:24:39.911Z,101152.94
2023-05-13T06:27:07.988Z,101154.08
2023-05-13T06:29:36.018Z,101156.31
2023-05-13T06:32:04.877Z,101154.77
2023-05-13T06:34:32.953Z,101158.75
2023-05-13T06:37:00.922Z,101160.79
2023-05-13T06:39:29.239Z,101164.97
2023-05-13T06:41:57.213Z,101168.09
2023-05-13T06:44:25.185Z,101169.27
2023-05-13T06:46:53.543Z,101170.27
2023-05-13T06:49:22.237Z,101180.33
2023-05-13T06:51:51.200Z,101181.13
2023-05-13T06:54:20.055Z,101184.77
2023-05-13T06:56:48.128Z,101184.67
2023-05-13T06:59:16.313Z,101181.92
2023-05-13T07:01:44.600Z,101187.17
2023-05-13T07:04:13.029Z,101188.85
2023-05-13T07:06:41.218Z,101194.64
2023-05-13T07:09:09.390Z,101196.48
2023-05-13T07:11:37.558Z,101201.55
2023-05-13T07:14:05.759Z,101198.61
2023-05-13T07:16:34.292Z,101196.90
2023-05-13T07:19:02.621Z,101196.96
2023-05-13T07:21:31.388Z,101191.52
2023-05-13T07:23:59.555Z,101183.96
2023-05-13T07:26:29.272Z,101185.64
2023-05-13T07:29:01.886Z,101180.73
2023-05-13T07:31:38.536Z,101179.39
2023-05-13T07:34:07.186Z,101183.73
2023-05-13T07:36:35.300Z,101178.80
2023-05-13T07:39:03.506Z,101182.61
2023-05-13T07:41:31.571Z,101178.21
2023-05-13T07:43:59.930Z,101177.36
2023-05-13T07:46:28.419Z,101178.82
2023-05-13T07:48:56.592Z,101180.30
2023-05-13T07:51:27.182Z,101186.05
2023-05-13T07:53:58.654Z,101188.05
2023-05-13T07:56:27.766Z,101192.18
2023-05-13T07:58:56.857Z,101198.45
2023-05-13T08:01:25.187Z,101195.45
2023-05-13T08:03:53.567Z,101197.08
2023-05-13T08:06:21.934Z,101198.34
2023-05-13T08:08:51.150Z,101198.90
2023-05-13T08:11:19.292Z,101201.59
2023-05-13T08:13:48.082Z,101204.09
2023-05-13T08:16:16.308Z,101201.23
2023-05-13T08:18:44.453Z,101198.36
2023-05-13T08:21:14.317Z,101193.70
2023-05-13T08:23:45.440Z,101195.11
2023-05-13T08:26:15.040Z,101189.73
2023-05-13T08:28:43.138Z,101192.38
2023-05-13T08:31:13.138Z,101189.68
2023-05-13T08:33:42.281Z,101189.10
2023-05-13T08:36:11.229Z,101189.77
2023-05-13T08:38:39.538Z,101190.44
2023-05-13T08:41:08.855Z,101192.54
2023-05-13T08:43:38.750Z,101194.83
2023-05-13T08:46:10.402Z,101194.08
2023-05-13T08:48:41.019Z,101191.86
2023-05-13T08:51:10.222Z,101195.02
2023-05-13T08:53:40.252Z,101195.16
2023-05-13T08:56:09.358Z,101194.39
2023-05-13T08:58:37.444Z,101203.86
2023-05-13T09:01:06.763Z,101203.80
2023-05-13T09:03:36.000Z,101207.98
2023-05-13T09:06:04.408Z,101209.51
2023-05-13T09:08:32.963Z,101209.39
2023-05-13T09:11:01.204Z,101211.25
2023-05-13T09:13:29.512Z,101209.23
2023-05-13T09:15:58.170Z,101204.61
2023-05-13T09:18:31.184Z,101200.49
2023-05-13T09:21:23.908Z,101199.89
2023-05-13T09:24:08.466Z,101204.17
2023-05-13T09:26:38.410Z,101199.88
2023-05-13T09:29:28.926Z,101200.04
2023-05-13T09:31:59.384Z,101207.41
2023-05-13T09:34:32.820Z,101211.80
2023-05-13T09:37:04.320Z,101212.42
2023-05-13T09:39:38.273Z,101212.98
2023-05-13T09:42:15.353Z,101212.36
2023-05-13T09:44:45.100Z,101209.30
2023-05-13T09:47:14.778Z,101214.77
2023-05-13T09:49:44.185Z,101212.41
2023-05-13T09:52:16.606Z,101218.03
2023-05-13T09:54:45.073Z,101218.75
2023-05-13T09:57:13.906Z,101218.56
2023-05-13T09:59:42.103Z,101222.60
2023-05-13T10:02:16.238Z,101227.40
2023-05-13T10:04:44.753Z,101223.45
2023-05-13T10:07:16.744Z,101215.35
2023-05-13T10:09:47.782Z,101214.24
2023-05-13T10:12:16.679Z,101217.46
2023-05-13T10:14:45.269Z,101215.87
2023-05-13T10:17:14.621Z,101219.16
2023-05-13T10:19:43.586Z,101217.92
2023-05-13T10:22:13.232Z,101226.77
2023-05-13T10:24:43.418Z,101228.41
2023-05-13T10:27:12.295Z,101235.55
2023-05-13T10:29:43.955Z,101225.73
2023-05-13T10:32:13.061Z,101222.02
2023-05-13T10:34:44.196Z,101217.52
2023-05-13T10:37:31.272Z,101219.84
2023-05-13T10:40:17.982Z,101223.80
2023-05-13T10:43:08.755Z,101221.69
2023-05-13T10:45:37.669Z,101223.41
2023-05-13T10:48:08.843Z,101223.27
2023-05-13T10:50:39.134Z,101226.92
2023-05-13T10:53:20.219Z,101227.77
2023-05-13T10:55:53.916Z,101232.46
2023-05-13T10:58:33.441Z,101233.58
2023-05-13T11:01:16.963Z,101238.64
2023-05-13T11:03:57.764Z,101236.62
2023-05-13T11:06:38.204Z,101235.77
2023-05-13T11:09:27.504Z,101234.99
2023-05-13T11:12:01.336Z,101237.81
2023-05-13T11:14:32.848Z,101234.05
2023-05-13T11:17:01.059Z,101231.75
2023-05-13T11:19:32.370Z,101228.00
2023-05-13T11:22:15.429Z,101225.84
2023-05-13T11:25:07.770Z,101224.45
2023-05-13T11:27:41.091Z,101227.95
2023-05-13T11:30:23.465Z,101219.61
2023-05-13T11:32:51.989Z,101222.69
2023-05-13T11:35:26.143Z,101223.95
2023-05-13T11:38:03.612Z,101228.12
2023-05-13T11:40:36.840Z,101219.91
2023-05-13T11:43:05.366Z,101219.57
2023-05-13T11:45:39.314Z,101215.98
2023-05-13T11:48:22.884Z,101218.48
2023-05-13T11:50:51.877Z,101217.45
2023-05-13T11:53:21.485Z,101217.67
2023-05-13T11:55:50.633Z,101212.14
2023-05-13T11:58:21.559Z,101216.49
2023-05-13T12:00:49.969Z,101224.45
2023-05-13T12:03:18.230Z,101231.27
2023-05-13T12:05:46.524Z,101227.89
2023-05-13T12:08:14.820Z,101222.52
2023-05-13T12:10:43.863Z,101218.42
2023-05-13T12:13:12.725Z,101216.67
2023-05-13T12:15:42.136Z,101216.16
2023-05-13T12:18:10.462Z,101219.02
2023-05-13T12:20:38.816Z,101222.95
2023-05-13T12:23:06.977Z,101219.17
2023-05-13T12:25:41.651Z,101224.55
2023-05-13T12:28:24.877Z,101231.54
2023-05-13T12:30:54.987Z,101229.42
2023-05-13T12:33:28.826Z,101240.52
2023-05-13T12:36:18.378Z,101238.52
2023-05-13T12:39:04.109Z,101247.84
2023-05-13T12:41:34.024Z,101250.89
2023-05-13T12:44:18.434Z,101251.98
2023-05-13T12:46:54.221Z,101248.58
2023-05-13T12:49:22.307Z,101248.60
2023-05-13T12:51:50.545Z,101245.02
2023-05-13T12:54:18.670Z,101247.71
2023-05-13T12:56:46.781Z,101245.38
2023-05-13T12:59:14.920Z,101240.92
2023-05-13T13:01:43.427Z,101247.73
2023-05-13T13:04:12.157Z,101244.31
2023-05-13T13:06:40.718Z,101246.65
2023-05-13T13:09:08.873Z,101241.46
2023-05-13T13:11:36.939Z,101239.31
2023-05-13T13:14:04.878Z,101238.07
2023-05-13T13:16:33.669Z,101241.10
2023-05-13T13:19:02.901Z,101246.65
2023-05-13T13:21:32.794Z,101250.95
2023-05-13T13:24:01.391Z,101245.56
2023-05-13T13:26:29.895Z,101247.70
2023-05-13T13:28:58.257Z,101245.75
2023-05-13T13:31:26.343Z,101251.26
2023-05-13T13:33:54.862Z,101244.09
2023-05-13T13:36:23.614Z,101244.80
2023-05-13T13:38:51.877Z,101242.33
2023-05-13T13:41:19.981Z,101243.95
2023-05-13T13:43:47.984Z,101248.07
2023-05-13T13:46:16.855Z,101259.48
2023-05-13T13:48:44.945Z,101267.89
2023-05-13T13:51:13.029Z,101264.84
2023-05-13T13:53:41.180Z,101263.03
2023-05-13T13:56:11.442Z,101264.30
2023-05-13T13:58:41.173Z,101261.63
2023-05-13T14:01:09.310Z,101266.80
2023-05-13T14:03:37.911Z,101271.29
2023-05-13T14:06:06.690Z,101280.60
2023-05-13T14:08:34.714Z,101277.90
2023-05-13T14:11:02.985Z,101278.98
2023-05-13T14:13:31.024Z,101270.58
2023-05-13T14:15:59.746Z,101272.91
2023-05-13T14:18:29.320Z,101275.77
2023-05-13T14:20:57.493Z,101269.86
2023-05-13T14:23:25.672Z,101275.61
2023-05-13T14:25:53.963Z,101277.55
2023-05-13T14:28:23.735Z,101278.81
2023-05-13T14:30:53.121Z,101276.66
2023-05-13T14:33:21.133Z,101274.16
2023-05-13T14:35:49.614Z,101269.14
2023-05-13T14:38:17.690Z,101270.04
2023-05-13T14:40:45.711Z,101263.41
2023-05-13T14:43:14.053Z,101256.60
2023-05-13T14:45:42.087Z,101257.67
2023-05-13T14:48:10.130Z,101245.88
2023-05-13T14:50:39.356Z,101241.21
2023-05-13T14:53:08.937Z,101243.71
2023-05-13T14:55:37.231Z,101243.51
2023-05-13T14:58:06.021Z,101236.70
2023-05-13T15:00:35.199Z,101237.23
2023-05-13T15:03:03.747Z,101232.55
2023-05-13T15:05:32.422Z,101231.44
2023-05-13T15:08:00.557Z,101235.00
2023-05-13T15:10:28.665Z,101233.72
2023-05-13T15:12:56.864Z,101234.96
2023-05-13T15:15:25.132Z,101240.67
2023-05-13T15:17:54.053Z,101241.68
2023-05-13T15:20:22.943Z,101241.61
2023-05-13T15:22:51.378Z,101239.98
2023-05-13T15:25:22.449Z,101242.60
2023-05-13T15:27:50.668Z,101238.59
2023-05-13T15:30:19.302Z,101239.65
2023-05-13T15:32:48.042Z,101239.79
2023-05-13T15:35:16.530Z,101238.33
2023-05-13T15:37:45.040Z,101240.03
2023-05-13T15:40:13.323Z,101241.96
2023-05-13T15:42:41.825Z,101245.36
2023-05-13T15:45:09.953Z,101243.02
2023-05-13T15:47:38.648Z,101243.85
2023-05-13T15:50:12.449Z,101241.33
2023-05-13T15:52:41.264Z,101248.88
2023-05-13T15:55:09.388Z,101258.14
2023-05-13T15:57:38.151Z,101268.34
2023-05-13T16:00:07.197Z,101281.27
2023-05-13T16:02:35.326Z,101284.72
2023-05-13T16:05:04.142Z,101287.05
2023-05-13T16:07:32.731Z,101286.98
2023-05-13T16:10:01.016Z,101289.91
2023-05-13T16:12:31.034Z,101295.29
2023-05-13T16:14:59.198Z,101295.33
2023-05-13T16:17:27.236Z,101293.90
2023-05-13T16:19:55.782Z,101299.23
2023-05-13T16:22:35.398Z,101301.94
2023-05-13T16:25:09.231Z,101302.94
2023-05-13T16:27:39.272Z,101305.00
2023-05-13T16:30:08.721Z,101307.09
2023-05-13T16:32:37.809Z,101307.32
2023-05-13T16:35:06.941Z,101310.70
2023-05-13T16:37:35.674Z,101316.69
2023-05-13T16:40:04.668Z,101313.43
2023-05-13T16:42:34.137Z,101325.88
2023-05-13T16:45:02.171Z,101323.54
2023-05-13T16:47:30.430Z,101320.42
2023-05-13T16:49:59.372Z,101312.25
2023-05-13T16:52:27.990Z,101301.71
2023-05-13T16:54:58.374Z,101296.14
2023-05-13T16:57:28.894Z,101295.09
2023-05-13T16:59:57.953Z,101293.48
2023-05-13T17:02:26.243Z,101300.83
2023-05-13T17:04:55.127Z,101308.20
2023-05-13T17:07:23.245Z,101314.86
2023-05-13T17:09:51.391Z,101320.08
2023-05-13T17:12:21.394Z,101323.52
2023-05-13T17:14:49.754Z,101332.15
2023-05-13T17:17:17.851Z,101337.34
2023-05-13T17:19:46.134Z,101339.86
2023-05-13T17:22:14.233Z,101346.33
2023-05-13T17:24:42.367Z,101350.45
2023-05-13T17:27:11.341Z,101348.84
2023-05-13T17:29:39.319Z,101347.23
2023-05-13T17:32:07.854Z,101347.06
2023-05-13T17:34:36.145Z,101349.40
2023-05-13T17:37:04.155Z,101352.10
2023-05-13T17:39:33.080Z,101353.18
2023-05-13T17:42:01.228Z,101355.88
2023-05-13T17:44:29.404Z,101360.73
2023-05-13T17:46:58.273Z,101357.52
2023-05-13T17:49:26.845Z,101358.59
2023-05-13T17:51:55.014Z,101360.02
2023-05-13T17:54:23.156Z,101368.27
2023-05-13T17:56:52.020Z,101373.28
2023-05-13T17:59:20.153Z,101380.27
2023-05-13T18:01:48.436Z,101382.77
2023-05-13T18:04:16.542Z,101384.23
2023-05-13T18:06:45.140Z,101386.39
2023-05-13T18:09:13.368Z,101393.55
2023-05-13T18:11:42.949Z,101399.09
2023-05-13T18:14:11.067Z,101403.89
2023-05-13T18:16:39.402Z,101407.30
2023-05-13T18:19:08.035Z,101412.30
2023-05-13T18:21:36.236Z,101415.15
2023-05-13T18:24:04.624Z,101416.95
2023-05-13T18:26:33.244Z,101420.70
2023-05-13T18:29:01.191Z,101425.34
2023-05-13T18:31:29.529Z,101434.28
2023-05-13T18:33:58.337Z,101433.55
2023-05-13T18:36:26.507Z,101430.52
2023-05-13T18:38:55.191Z,101430.15
2023-05-13T18:41:23.254Z,101428.72
2023-05-13T18:43:51.546Z,101432.48
2023-05-13T18:46:20.280Z,101434.26
2023-05-13T18:48:48.693Z,101433.89
2023-05-13T18:51:16.921Z,101437.47
2023-05-13T18:53:45.557Z,101436.58
2023-05-13T18:56:13.881Z,101432.64
2023-05-13T18:58:41.870Z,101435.85
2023-05-13T19:01:09.869Z,101436.91
2023-05-13T19:03:39.212Z,101439.41
2023-05-13T19:06:07.963Z,101438.70
2023-05-13T19:08:36.445Z,101442.08
2023-05-13T19:11:05.395Z,101442.26
2023-05-13T19:13:46.043Z,101441.90
2023-05-13T19:16:16.015Z,101445.84
2023-05-13T19:18:44.108Z,101450.48
2023-05-13T19:21:12.155Z,101452.09
2023-05-13T19:23:40.252Z,101451.54
2023-05-13T19:26:11.386Z,101447.79
2023-05-13T19:28:40.040Z,101452.96
2023-05-13T19:31:08.092Z,101455.64
2023-05-13T19:33:36.696Z,101456.00
2023-05-13T19:36:06.198Z,101455.28
2023-05-13T19:38:35.593Z,101452.94
2023-05-13T19:41:03.717Z,101457.76
2023-05-13T19:43:31.927Z,101457.58
2023-05-13T19:46:00.699Z,101461.14
2023-05-13T19:48:30.163Z,101463.98
2023-05-13T19:50:58.236Z,101463.45
2023-05-13T19:53:26.802Z,101462.91
2023-05-13T19:55:55.064Z,101457.70
2023-05-13T19:58:23.336Z,101458.76
2023-05-13T20:00:51.567Z,101461.04
2023-05-13T20:03:19.793Z,101461.57
2023-05-13T20:05:48.557Z,101467.45
2023-05-13T20:08:16.600Z,101470.12
2023-05-13T20:10:44.800Z,101475.64
2023-05-13T20:13:14.119Z,101478.48
2023-05-13T20:15:42.623Z,101480.44
2023-05-13T20:18:11.009Z,101476.30
2023-05-13T20:20:39.322Z,101483.63
2023-05-13T20:23:07.919Z,101480.76
2023-05-13T20:25:37.085Z,101477.36
2023-05-13T20:28:05.412Z,101472.17
2023-05-13T20:30:33.791Z,101476.46
2023-05-13T20:33:01.817Z,101478.41
2023-05-13T20:35:30.341Z,101480.02
2023-05-13T20:37:58.326Z,101481.62
2023-05-13T20:40:26.779Z,101481.25
2023-05-13T20:42:55.059Z,101478.02
2023-05-13T20:45:23.141Z,101481.03
2023-05-13T20:47:51.121Z,101483.52
2023-05-13T20:50:19.396Z,101488.70
2023-05-13T20:52:47.519Z,101486.17
2023-05-13T20:55:15.773Z,101488.81
2023-05-13T20:57:45.178Z,101491.46
2023-05-13T21:00:14.324Z,101496.09
2023-05-13T21:02:42.771Z,101495.90
2023-05-13T21:05:11.314Z,101495.52
2023-05-13T21:07:39.319Z,101494.05
2023-05-13T21:10:09.792Z,101496.16
2023-05-13T21:12:37.907Z,101495.44
2023-05-13T21:15:07.554Z,101496.48
2023-05-13T21:17:36.101Z,101495.77
2023-05-13T21:20:05.191Z,101495.92
2023-05-13T21:22:33.179Z,101491.44
2023-05-13T21:25:01.242Z,101488.38
2023-05-13T21:27:29.825Z,101488.35
2023-05-13T21:29:58.259Z,101487.81
2023-05-13T21:32:26.369Z,101486.91
2023-05-13T21:34:55.831Z,101481.70
2023-05-13T21:37:25.772Z,101480.27
2023-05-13T21:39:53.834Z,101479.17
2023-05-13T21:42:22.108Z,101478.63
2023-05-13T21:44:50.473Z,101474.67
2023-05-13T21:47:18.651Z,101475.88
2023-05-13T21:49:46.805Z,101474.59
2023-05-13T21:52:14.921Z,101472.96
2023-05-13T21:54:42.992Z,101476.34
2023-05-13T21:57:10.957Z,101475.23
2023-05-13T21:59:39.299Z,101480.54
2023-05-13T22:02:07.977Z,101480.48
2023-05-13T22:04:36.963Z,101481.17
2023-05-13T22:07:05.067Z,101478.80
2023-05-13T22:09:33.657Z,101480.20
2023-05-13T22:12:02.800Z,101475.54
2023-05-13T22:14:31.505Z,101475.73
2023-05-13T22:17:09.144Z,101480.89
2023-05-13T22:19:38.172Z,101478.73
2023-05-13T22:22:06.285Z,101476.73
2023-05-13T22:24:35.956Z,101480.27
2023-05-13T22:27:04.397Z,101482.36
2023-05-13T22:29:32.781Z,101482.17
2023-05-13T22:32:02.392Z,101481.59
2023-05-13T22:34:30.676Z,101479.60
2023-05-13T22:37:01.414Z,101477.27
2023-05-13T22:39:29.475Z,101473.34
2023-05-13T22:41:58.110Z,101472.23
2023-05-13T22:44:26.221Z,101470.07
2023-05-13T22:46:54.294Z,101467.54
2023-05-13T22:49:23.128Z,101465.58
2023-05-13T22:51:51.410Z,101460.19
2023-05-13T22:54:20.736Z,101449.63
2023-05-13T22:56:48.854Z,101445.34
2023-05-13T22:59:17.379Z,101443.31
2023-05-13T23:01:45.954Z,101438.11
2023-05-13T23:04:14.619Z,101441.11
2023-05-13T23:06:43.288Z,101437.19
2023-05-13T23:09:11.330Z,101436.64
2023-05-13T23:11:39.641Z,101435.02
2023-05-13T23:14:08.227Z,101429.09
2023-05-13T23:16:36.512Z,101430.66
2023-05-13T23:19:05.115Z,101425.67
2023-05-13T23:21:33.196Z,101427.75
2023-05-13T23:24:01.437Z,101423.41
2023-05-13T23:26:29.779Z,101427.46
2023-05-13T23:28:57.776Z,101431.55
2023-05-13T23:31:26.113Z,101434.73
2023-05-13T23:33:54.964Z,101433.61
2023-05-13T23:36:23.534Z,101430.04
2023-05-13T23:38:52.526Z,101427.34
2023-05-13T23:41:20.532Z,101424.81
2023-05-13T23:43:48.857Z,101419.81
2023-05-13T23:46:17.065Z,101414.80
2023-05-13T23:48:45.682Z,101414.73
2023-05-13T23:51:14.419Z,101412.02
2023-05-13T23:53:43.171Z,101414.10
2023-05-13T23:56:12.040Z,101412.30
2023-05-13T23:58:40.047Z,101410.70
